sensor_id;sensor_type;location;lat;lon;timestamp;temperature;humidity
38241;DHT22;24037;49.536;8.500;2022-09-12T00:02:03;11.70;99.90
38241;DHT22;24037;49.536;8.500;2022-09-12T00:04:29;11.70;99.90
38241;DHT22;24037;49.536;8.500;2022-09-12T00:06:55;11.70;99.90
38241;DHT22;24037;49.536;8.500;2022-09-12T00:09:21;11.70;99.90
38241;DHT22;24037;49.536;8.500;2022-09-12T00:11:47;11.70;99.90
38241;DHT22;24037;49.536;8.500;2022-09-12T00:14:15;11.70;99.90
38241;DHT22;24037;49.536;8.500;2022-09-12T00:16:43;11.80;99.90
38241;DHT22;24037;49.536;8.500;2022-09-12T00:19:10;11.80;99.90
38241;DHT22;24037;49.536;8.500;2022-09-12T00:21:37;11.70;99.90
38241;DHT22;24037;49.536;8.500;2022-09-12T00:24:05;11.60;99.90
38241;DHT22;24037;49.536;8.500;2022-09-12T00:26:31;11.50;99.90
38241;DHT22;24037;49.536;8.500;2022-09-12T00:28:57;11.60;99.90
38241;DHT22;24037;49.536;8.500;2022-09-12T00:31:25;11.50;99.90
38241;DHT22;24037;49.536;8.500;2022-09-12T00:33:53;11.50;99.90
38241;DHT22;24037;49.536;8.500;2022-09-12T00:36:21;11.50;99.90
38241;DHT22;24037;49.536;8.500;2022-09-12T00:38:49;11.50;99.90
38241;DHT22;24037;49.536;8.500;2022-09-12T00:41:19;11.60;99.90
38241;DHT22;24037;49.536;8.500;2022-09-12T00:43:54;11.50;99.90
38241;DHT22;24037;49.536;8.500;2022-09-12T00:46:28;11.50;99.90
38241;DHT22;24037;49.536;8.500;2022-09-12T00:49:20;11.60;99.90
38241;DHT22;24037;49.536;8.500;2022-09-12T00:51:52;11.50;99.90
38241;DHT22;24037;49.536;8.500;2022-09-12T00:54:24;11.40;99.90
38241;DHT22;24037;49.536;8.500;2022-09-12T00:56:54;11.30;99.90
38241;DHT22;24037;49.536;8.500;2022-09-12T00:59:49;11.30;99.90
38241;DHT22;24037;49.536;8.500;2022-09-12T01:02:18;11.40;99.90
38241;DHT22;24037;49.536;8.500;2022-09-12T01:04:45;11.40;99.90
38241;DHT22;24037;49.536;8.500;2022-09-12T01:07:13;11.30;99.90
38241;DHT22;24037;49.536;8.500;2022-09-12T01:09:41;11.20;99.90
38241;DHT22;24037;49.536;8.500;2022-09-12T01:12:09;11.30;99.90
38241;DHT22;24037;49.536;8.500;2022-09-12T01:14:36;11.30;99.90
38241;DHT22;24037;49.536;8.500;2022-09-12T01:17:03;11.20;99.90
38241;DHT22;24037;49.536;8.500;2022-09-12T01:19:41;11.20;99.90
38241;DHT22;24037;49.536;8.500;2022-09-12T01:25:30;11.10;99.90
38241;DHT22;24037;49.536;8.500;2022-09-12T01:28:35;11.10;99.90
38241;DHT22;24037;49.536;8.500;2022-09-12T01:31:25;11.10;99.90
38241;DHT22;24037;49.536;8.500;2022-09-12T01:34:23;11.00;99.90
38241;DHT22;24037;49.536;8.500;2022-09-12T01:40:02;11.10;99.90
38241;DHT22;24037;49.536;8.500;2022-09-12T01:42:41;11.10;99.90
38241;DHT22;24037;49.536;8.500;2022-09-12T01:47:59;11.00;99.90
38241;DHT22;24037;49.536;8.500;2022-09-12T01:50:31;10.90;99.90
38241;DHT22;24037;49.536;8.500;2022-09-12T01:53:32;10.90;99.90
38241;DHT22;24037;49.536;8.500;2022-09-12T01:56:02;10.90;99.90
38241;DHT22;24037;49.536;8.500;2022-09-12T01:59:02;10.80;99.90
38241;DHT22;24037;49.536;8.500;2022-09-12T02:01:32;10.70;99.90
38241;DHT22;24037;49.536;8.500;2022-09-12T02:07:05;10.80;99.90
38241;DHT22;24037;49.536;8.500;2022-09-12T02:12:43;10.90;99.90
38241;DHT22;24037;49.536;8.500;2022-09-12T02:15:11;10.80;99.90
38241;DHT22;24037;49.536;8.500;2022-09-12T02:17:43;10.80;99.90
38241;DHT22;24037;49.536;8.500;2022-09-12T02:20:32;10.80;99.90
38241;DHT22;24037;49.536;8.500;2022-09-12T02:22:59;10.70;99.90
38241;DHT22;24037;49.536;8.500;2022-09-12T02:25:28;10.70;99.90
38241;DHT22;24037;49.536;8.500;2022-09-12T02:28:02;10.70;99.90
38241;DHT22;24037;49.536;8.500;2022-09-12T02:30:38;10.70;99.90
38241;DHT22;24037;49.536;8.500;2022-09-12T02:33:26;10.70;99.90
38241;DHT22;24037;49.536;8.500;2022-09-12T02:36:02;10.70;99.90
38241;DHT22;24037;49.536;8.500;2022-09-12T02:38:44;10.70;99.90
38241;DHT22;24037;49.536;8.500;2022-09-12T02:41:13;10.70;99.90
38241;DHT22;24037;49.536;8.500;2022-09-12T02:43:40;10.50;99.90
38241;DHT22;24037;49.536;8.500;2022-09-12T02:46:11;10.40;99.90
38241;DHT22;24037;49.536;8.500;2022-09-12T02:48:41;10.30;99.90
38241;DHT22;24037;49.536;8.500;2022-09-12T02:51:09;10.20;99.90
38241;DHT22;24037;49.536;8.500;2022-09-12T02:53:37;10.20;99.90
38241;DHT22;24037;49.536;8.500;2022-09-12T02:56:08;10.30;99.90
38241;DHT22;24037;49.536;8.500;2022-09-12T02:58:36;10.30;99.90
38241;DHT22;24037;49.536;8.500;2022-09-12T03:04:01;10.30;99.90
38241;DHT22;24037;49.536;8.500;2022-09-12T03:06:42;10.40;99.90
38241;DHT22;24037;49.536;8.500;2022-09-12T03:15:04;10.30;99.90
38241;DHT22;24037;49.536;8.500;2022-09-12T03:20:33;10.30;99.90
38241;DHT22;24037;49.536;8.500;2022-09-12T03:23:16;10.30;99.90
38241;DHT22;24037;49.536;8.500;2022-09-12T03:25:58;10.30;99.90
38241;DHT22;24037;49.536;8.500;2022-09-12T03:28:26;10.30;99.90
38241;DHT22;24037;49.536;8.500;2022-09-12T03:30:52;10.30;99.90
38241;DHT22;24037;49.536;8.500;2022-09-12T03:33:22;10.20;99.90
38241;DHT22;24037;49.536;8.500;2022-09-12T03:35:49;10.30;99.90
38241;DHT22;24037;49.536;8.500;2022-09-12T03:38:16;10.30;99.90
38241;DHT22;24037;49.536;8.500;2022-09-12T03:40:42;10.30;99.90
38241;DHT22;24037;49.536;8.500;2022-09-12T03:43:09;10.10;99.90
38241;DHT22;24037;49.536;8.500;2022-09-12T03:45:37;10.00;99.90
38241;DHT22;24037;49.536;8.500;2022-09-12T03:48:04;10.00;99.90
38241;DHT22;24037;49.536;8.500;2022-09-12T03:50:31;10.00;99.90
38241;DHT22;24037;49.536;8.500;2022-09-12T03:53:00;10.00;99.90
38241;DHT22;24037;49.536;8.500;2022-09-12T03:55:27;10.10;99.90
38241;DHT22;24037;49.536;8.500;2022-09-12T03:57:54;10.10;99.90
38241;DHT22;24037;49.536;8.500;2022-09-12T04:00:20;10.10;99.90
38241;DHT22;24037;49.536;8.500;2022-09-12T04:02:47;10.10;99.90
38241;DHT22;24037;49.536;8.500;2022-09-12T04:05:13;10.00;99.90
38241;DHT22;24037;49.536;8.500;2022-09-12T04:07:39;10.00;99.90
38241;DHT22;24037;49.536;8.500;2022-09-12T04:10:06;10.00;99.90
38241;DHT22;24037;49.536;8.500;2022-09-12T04:12:32;9.90;99.90
38241;DHT22;24037;49.536;8.500;2022-09-12T04:15:00;9.90;99.90
38241;DHT22;24037;49.536;8.500;2022-09-12T04:17:26;9.80;99.90
38241;DHT22;24037;49.536;8.500;2022-09-12T04:19:52;9.70;99.90
38241;DHT22;24037;49.536;8.500;2022-09-12T04:22:19;9.70;99.90
38241;DHT22;24037;49.536;8.500;2022-09-12T04:24:45;9.70;99.90
38241;DHT22;24037;49.536;8.500;2022-09-12T04:27:12;9.60;99.90
38241;DHT22;24037;49.536;8.500;2022-09-12T04:29:38;9.60;99.90
38241;DHT22;24037;49.536;8.500;2022-09-12T04:32:04;9.50;99.90
38241;DHT22;24037;49.536;8.500;2022-09-12T04:34:31;9.60;99.90
38241;DHT22;24037;49.536;8.500;2022-09-12T04:36:57;9.60;99.90
38241;DHT22;24037;49.536;8.500;2022-09-12T04:39:23;9.50;99.90
38241;DHT22;24037;49.536;8.500;2022-09-12T04:41:49;9.60;99.90
38241;DHT22;24037;49.536;8.500;2022-09-12T04:44:17;9.60;99.90
38241;DHT22;24037;49.536;8.500;2022-09-12T04:46:45;9.60;99.90
38241;DHT22;24037;49.536;8.500;2022-09-12T04:49:12;9.60;99.90
38241;DHT22;24037;49.536;8.500;2022-09-12T04:51:40;9.60;99.90
38241;DHT22;24037;49.536;8.500;2022-09-12T04:54:13;9.70;99.90
38241;DHT22;24037;49.536;8.500;2022-09-12T04:56:42;9.70;99.90
38241;DHT22;24037;49.536;8.500;2022-09-12T04:59:10;9.60;99.90
38241;DHT22;24037;49.536;8.500;2022-09-12T05:01:36;9.70;99.90
38241;DHT22;24037;49.536;8.500;2022-09-12T05:04:02;9.70;99.90
38241;DHT22;24037;49.536;8.500;2022-09-12T05:06:31;9.80;99.90
38241;DHT22;24037;49.536;8.500;2022-09-12T05:08:58;9.80;99.90
38241;DHT22;24037;49.536;8.500;2022-09-12T05:11:27;9.80;99.90
38241;DHT22;24037;49.536;8.500;2022-09-12T05:13:54;9.90;99.90
38241;DHT22;24037;49.536;8.500;2022-09-12T05:16:21;9.80;99.90
38241;DHT22;24037;49.536;8.500;2022-09-12T05:18:48;9.70;99.90
38241;DHT22;24037;49.536;8.500;2022-09-12T05:21:17;9.60;99.90
38241;DHT22;24037;49.536;8.500;2022-09-12T05:23:44;9.60;99.90
38241;DHT22;24037;49.536;8.500;2022-09-12T05:26:14;9.60;99.90
38241;DHT22;24037;49.536;8.500;2022-09-12T05:28:40;9.70;99.90
38241;DHT22;24037;49.536;8.500;2022-09-12T05:31:12;9.90;99.90
38241;DHT22;24037;49.536;8.500;2022-09-12T05:33:40;10.00;99.90
38241;DHT22;24037;49.536;8.500;2022-09-12T05:36:10;10.10;99.90
38241;DHT22;24037;49.536;8.500;2022-09-12T05:38:37;10.20;99.90
38241;DHT22;24037;49.536;8.500;2022-09-12T05:41:08;10.40;99.90
38241;DHT22;24037;49.536;8.500;2022-09-12T05:43:36;10.60;99.90
38241;DHT22;24037;49.536;8.500;2022-09-12T05:46:11;11.10;99.90
38241;DHT22;24037;49.536;8.500;2022-09-12T05:48:39;11.70;99.90
38241;DHT22;24037;49.536;8.500;2022-09-12T05:51:19;12.30;99.90
38241;DHT22;24037;49.536;8.500;2022-09-12T05:53:49;13.00;99.90
38241;DHT22;24037;49.536;8.500;2022-09-12T05:56:19;13.80;99.90
38241;DHT22;24037;49.536;8.500;2022-09-12T05:58:52;14.20;99.90
38241;DHT22;24037;49.536;8.500;2022-09-12T06:01:19;14.30;99.90
38241;DHT22;24037;49.536;8.500;2022-09-12T06:03:50;14.20;99.90
38241;DHT22;24037;49.536;8.500;2022-09-12T06:06:18;14.20;99.90
38241;DHT22;24037;49.536;8.500;2022-09-12T06:08:47;13.90;99.90
38241;DHT22;24037;49.536;8.500;2022-09-12T06:11:19;13.60;99.90
38241;DHT22;24037;49.536;8.500;2022-09-12T06:13:46;13.40;99.90
38241;DHT22;24037;49.536;8.500;2022-09-12T06:16:15;13.30;99.90
38241;DHT22;24037;49.536;8.500;2022-09-12T06:18:53;13.10;99.90
38241;DHT22;24037;49.536;8.500;2022-09-12T06:21:21;13.20;99.90
38241;DHT22;24037;49.536;8.500;2022-09-12T06:23:47;13.20;99.90
38241;DHT22;24037;49.536;8.500;2022-09-12T06:26:16;13.10;99.90
38241;DHT22;24037;49.536;8.500;2022-09-12T06:28:43;13.20;99.90
38241;DHT22;24037;49.536;8.500;2022-09-12T06:31:12;13.30;99.90
38241;DHT22;24037;49.536;8.500;2022-09-12T06:33:41;13.40;99.90
38241;DHT22;24037;49.536;8.500;2022-09-12T06:36:13;13.40;99.90
38241;DHT22;24037;49.536;8.500;2022-09-12T06:38:40;13.40;99.90
38241;DHT22;24037;49.536;8.500;2022-09-12T06:41:08;13.40;99.90
38241;DHT22;24037;49.536;8.500;2022-09-12T06:43:35;13.40;99.90
38241;DHT22;24037;49.536;8.500;2022-09-12T06:46:02;14.00;99.90
38241;DHT22;24037;49.536;8.500;2022-09-12T06:48:28;14.30;99.90
38241;DHT22;24037;49.536;8.500;2022-09-12T06:51:00;14.50;99.90
38241;DHT22;24037;49.536;8.500;2022-09-12T06:53:28;14.60;99.90
38241;DHT22;24037;49.536;8.500;2022-09-12T06:58:35;14.10;99.90
38241;DHT22;24037;49.536;8.500;2022-09-12T07:01:13;14.00;99.90
38241;DHT22;24037;49.536;8.500;2022-09-12T07:03:40;14.00;99.90
38241;DHT22;24037;49.536;8.500;2022-09-12T07:06:11;14.10;99.90
38241;DHT22;24037;49.536;8.500;2022-09-12T07:08:38;14.10;99.90
38241;DHT22;24037;49.536;8.500;2022-09-12T07:11:16;14.10;99.90
38241;DHT22;24037;49.536;8.500;2022-09-12T07:13:44;14.00;99.90
38241;DHT22;24037;49.536;8.500;2022-09-12T07:16:11;14.50;99.90
38241;DHT22;24037;49.536;8.500;2022-09-12T07:18:38;14.80;99.90
38241;DHT22;24037;49.536;8.500;2022-09-12T07:21:14;15.00;99.90
38241;DHT22;24037;49.536;8.500;2022-09-12T07:23:41;15.20;99.90
38241;DHT22;24037;49.536;8.500;2022-09-12T07:26:10;15.30;99.90
38241;DHT22;24037;49.536;8.500;2022-09-12T07:28:37;15.80;99.90
38241;DHT22;24037;49.536;8.500;2022-09-12T07:31:10;15.80;99.90
38241;DHT22;24037;49.536;8.500;2022-09-12T07:33:37;15.90;99.90
38241;DHT22;24037;49.536;8.500;2022-09-12T07:36:06;16.20;99.90
38241;DHT22;24037;49.536;8.500;2022-09-12T07:38:34;16.50;99.90
38241;DHT22;24037;49.536;8.500;2022-09-12T07:41:00;16.60;99.90
38241;DHT22;24037;49.536;8.500;2022-09-12T07:43:27;16.10;99.90
38241;DHT22;24037;49.536;8.500;2022-09-12T07:45:54;15.80;99.90
38241;DHT22;24037;49.536;8.500;2022-09-12T07:48:21;15.90;99.90
38241;DHT22;24037;49.536;8.500;2022-09-12T07:50:47;15.90;99.90
38241;DHT22;24037;49.536;8.500;2022-09-12T07:53:15;16.10;99.90
38241;DHT22;24037;49.536;8.500;2022-09-12T07:55:41;16.20;99.90
38241;DHT22;24037;49.536;8.500;2022-09-12T07:58:07;16.70;99.90
38241;DHT22;24037;49.536;8.500;2022-09-12T08:00:34;16.70;99.90
38241;DHT22;24037;49.536;8.500;2022-09-12T08:03:02;17.10;99.90
38241;DHT22;24037;49.536;8.500;2022-09-12T08:05:29;18.00;99.90
38241;DHT22;24037;49.536;8.500;2022-09-12T08:07:55;18.30;99.90
38241;DHT22;24037;49.536;8.500;2022-09-12T08:10:22;18.30;99.90
38241;DHT22;24037;49.536;8.500;2022-09-12T08:12:48;18.20;99.90
38241;DHT22;24037;49.536;8.500;2022-09-12T08:15:15;18.70;99.90
38241;DHT22;24037;49.536;8.500;2022-09-12T08:17:42;18.90;99.90
38241;DHT22;24037;49.536;8.500;2022-09-12T08:20:08;18.70;99.90
38241;DHT22;24037;49.536;8.500;2022-09-12T08:22:34;18.70;99.90
38241;DHT22;24037;49.536;8.500;2022-09-12T08:25:00;19.00;99.90
38241;DHT22;24037;49.536;8.500;2022-09-12T08:27:26;19.40;99.90
38241;DHT22;24037;49.536;8.500;2022-09-12T08:29:53;20.00;99.90
38241;DHT22;24037;49.536;8.500;2022-09-12T08:32:20;20.60;99.90
38241;DHT22;24037;49.536;8.500;2022-09-12T08:34:46;20.80;99.90
38241;DHT22;24037;49.536;8.500;2022-09-12T08:37:12;20.80;99.90
38241;DHT22;24037;49.536;8.500;2022-09-12T08:39:38;20.60;99.90
38241;DHT22;24037;49.536;8.500;2022-09-12T08:42:05;21.00;99.90
38241;DHT22;24037;49.536;8.500;2022-09-12T08:45:07;21.30;99.80
38241;DHT22;24037;49.536;8.500;2022-09-12T08:47:39;21.30;97.80
38241;DHT22;24037;49.536;8.500;2022-09-12T08:50:14;21.00;99.30
38241;DHT22;24037;49.536;8.500;2022-09-12T08:52:57;21.20;96.70
38241;DHT22;24037;49.536;8.500;2022-09-12T08:57:53;21.10;95.70
38241;DHT22;24037;49.536;8.500;2022-09-12T09:00:20;20.80;97.40
38241;DHT22;24037;49.536;8.500;2022-09-12T09:02:53;21.30;97.20
38241;DHT22;24037;49.536;8.500;2022-09-12T09:10:58;22.40;90.20
38241;DHT22;24037;49.536;8.500;2022-09-12T09:13:37;22.50;90.60
38241;DHT22;24037;49.536;8.500;2022-09-12T09:18:58;22.60;90.60
38241;DHT22;24037;49.536;8.500;2022-09-12T09:21:31;23.00;85.20
38241;DHT22;24037;49.536;8.500;2022-09-12T09:24:04;23.20;85.40
38241;DHT22;24037;49.536;8.500;2022-09-12T09:26:48;23.30;83.80
38241;DHT22;24037;49.536;8.500;2022-09-12T09:29:19;23.30;80.00
38241;DHT22;24037;49.536;8.500;2022-09-12T09:31:51;23.50;79.60
38241;DHT22;24037;49.536;8.500;2022-09-12T09:34:21;23.60;80.50
38241;DHT22;24037;49.536;8.500;2022-09-12T09:36:59;23.60;77.30
38241;DHT22;24037;49.536;8.500;2022-09-12T09:45:13;22.90;79.90
38241;DHT22;24037;49.536;8.500;2022-09-12T09:48:30;23.00;78.30
38241;DHT22;24037;49.536;8.500;2022-09-12T09:50:30;23.10;78.90
38241;DHT22;24037;49.536;8.500;2022-09-12T09:52:59;22.90;78.10
38241;DHT22;24037;49.536;8.500;2022-09-12T09:55:31;23.10;79.60
38241;DHT22;24037;49.536;8.500;2022-09-12T09:57:59;22.70;78.00
38241;DHT22;24037;49.536;8.500;2022-09-12T10:00:29;22.50;78.60
38241;DHT22;24037;49.536;8.500;2022-09-12T10:05:47;22.70;82.80
38241;DHT22;24037;49.536;8.500;2022-09-12T10:08:23;23.00;80.40
38241;DHT22;24037;49.536;8.500;2022-09-12T10:13:40;23.40;79.80
38241;DHT22;24037;49.536;8.500;2022-09-12T10:16:27;23.60;78.90
38241;DHT22;24037;49.536;8.500;2022-09-12T10:18:59;23.10;76.50
38241;DHT22;24037;49.536;8.500;2022-09-12T10:21:38;23.10;80.30
38241;DHT22;24037;49.536;8.500;2022-09-12T10:26:56;23.10;73.60
38241;DHT22;24037;49.536;8.500;2022-09-12T10:29:28;23.20;76.00
38241;DHT22;24037;49.536;8.500;2022-09-12T10:31:59;23.50;74.00
38241;DHT22;24037;49.536;8.500;2022-09-12T10:34:34;23.20;74.60
38241;DHT22;24037;49.536;8.500;2022-09-12T10:37:04;23.10;73.20
38241;DHT22;24037;49.536;8.500;2022-09-12T10:39:32;23.30;74.80
38241;DHT22;24037;49.536;8.500;2022-09-12T10:42:00;23.30;73.90
38241;DHT22;24037;49.536;8.500;2022-09-12T10:44:32;23.30;73.30
38241;DHT22;24037;49.536;8.500;2022-09-12T10:47:00;23.40;71.90
38241;DHT22;24037;49.536;8.500;2022-09-12T10:49:44;23.20;68.80
38241;DHT22;24037;49.536;8.500;2022-09-12T10:52:23;23.20;70.70
38241;DHT22;24037;49.536;8.500;2022-09-12T10:54:51;23.50;69.40
38241;DHT22;24037;49.536;8.500;2022-09-12T10:57:30;23.70;67.20
38241;DHT22;24037;49.536;8.500;2022-09-12T11:00:16;23.90;65.40
38241;DHT22;24037;49.536;8.500;2022-09-12T11:03:15;23.40;68.00
38241;DHT22;24037;49.536;8.500;2022-09-12T11:05:51;23.60;72.00
38241;DHT22;24037;49.536;8.500;2022-09-12T11:22:19;23.70;65.70
38241;DHT22;24037;49.536;8.500;2022-09-12T11:28:05;24.00;67.10
38241;DHT22;24037;49.536;8.500;2022-09-12T11:31:21;23.90;65.10
38241;DHT22;24037;49.536;8.500;2022-09-12T11:33:51;24.10;66.60
38241;DHT22;24037;49.536;8.500;2022-09-12T11:36:34;23.90;63.90
38241;DHT22;24037;49.536;8.500;2022-09-12T11:39:13;23.50;64.60
38241;DHT22;24037;49.536;8.500;2022-09-12T11:41:48;23.30;65.40
38241;DHT22;24037;49.536;8.500;2022-09-12T11:44:27;23.20;64.20
38241;DHT22;24037;49.536;8.500;2022-09-12T11:46:54;23.30;64.30
38241;DHT22;24037;49.536;8.500;2022-09-12T11:49:47;23.40;64.20
38241;DHT22;24037;49.536;8.500;2022-09-12T11:52:24;23.80;61.10
38241;DHT22;24037;49.536;8.500;2022-09-12T11:55:01;24.20;62.90
38241;DHT22;24037;49.536;8.500;2022-09-12T12:00:22;24.50;60.00
38241;DHT22;24037;49.536;8.500;2022-09-12T12:05:58;24.10;58.30
38241;DHT22;24037;49.536;8.500;2022-09-12T12:08:29;24.30;56.80
38241;DHT22;24037;49.536;8.500;2022-09-12T12:10:58;24.60;57.20
38241;DHT22;24037;49.536;8.500;2022-09-12T12:13:40;24.80;55.70
38241;DHT22;24037;49.536;8.500;2022-09-12T12:18:54;25.10;55.40
38241;DHT22;24037;49.536;8.500;2022-09-12T12:21:33;25.10;54.20
38241;DHT22;24037;49.536;8.500;2022-09-12T12:34:37;24.90;52.50
38241;DHT22;24037;49.536;8.500;2022-09-12T12:45:01;25.30;53.70
38241;DHT22;24037;49.536;8.500;2022-09-12T12:47:42;25.30;50.50
38241;DHT22;24037;49.536;8.500;2022-09-12T12:57:52;24.70;51.40
38241;DHT22;24037;49.536;8.500;2022-09-12T13:05:51;24.90;50.60
38241;DHT22;24037;49.536;8.500;2022-09-12T13:10:51;25.30;51.40
38241;DHT22;24037;49.536;8.500;2022-09-12T13:13:25;25.50;50.50
38241;DHT22;24037;49.536;8.500;2022-09-12T13:15:52;25.60;48.90
38241;DHT22;24037;49.536;8.500;2022-09-12T13:18:31;25.60;49.00
38241;DHT22;24037;49.536;8.500;2022-09-12T13:21:09;25.60;49.40
38241;DHT22;24037;49.536;8.500;2022-09-12T13:23:36;25.80;49.70
38241;DHT22;24037;49.536;8.500;2022-09-12T13:26:13;25.70;49.00
38241;DHT22;24037;49.536;8.500;2022-09-12T13:28:45;25.70;48.10
38241;DHT22;24037;49.536;8.500;2022-09-12T13:31:21;25.30;49.00
38241;DHT22;24037;49.536;8.500;2022-09-12T13:33:57;24.90;49.30
38241;DHT22;24037;49.536;8.500;2022-09-12T13:39:20;25.20;47.50
38241;DHT22;24037;49.536;8.500;2022-09-12T13:44:47;25.70;47.80
38241;DHT22;24037;49.536;8.500;2022-09-12T13:47:29;25.80;47.60
38241;DHT22;24037;49.536;8.500;2022-09-12T13:49:56;25.80;49.60
38241;DHT22;24037;49.536;8.500;2022-09-12T13:52:29;25.90;48.70
38241;DHT22;24037;49.536;8.500;2022-09-12T13:54:58;25.90;49.20
38241;DHT22;24037;49.536;8.500;2022-09-12T13:59:56;25.40;47.50
38241;DHT22;24037;49.536;8.500;2022-09-12T14:02:25;25.30;46.50
38241;DHT22;24037;49.536;8.500;2022-09-12T14:04:53;25.20;48.10
38241;DHT22;24037;49.536;8.500;2022-09-12T14:07:47;25.40;46.90
38241;DHT22;24037;49.536;8.500;2022-09-12T14:10:27;25.40;47.30
38241;DHT22;24037;49.536;8.500;2022-09-12T14:12:55;25.30;46.90
38241;DHT22;24037;49.536;8.500;2022-09-12T14:15:25;24.90;46.60
38241;DHT22;24037;49.536;8.500;2022-09-12T14:17:54;24.80;46.90
38241;DHT22;24037;49.536;8.500;2022-09-12T14:20:24;24.80;48.00
38241;DHT22;24037;49.536;8.500;2022-09-12T14:22:51;25.00;47.70
38241;DHT22;24037;49.536;8.500;2022-09-12T14:25:20;25.20;47.60
38241;DHT22;24037;49.536;8.500;2022-09-12T14:27:55;25.00;46.10
38241;DHT22;24037;49.536;8.500;2022-09-12T14:30:27;25.00;45.70
38241;DHT22;24037;49.536;8.500;2022-09-12T14:35:37;25.20;46.40
38241;DHT22;24037;49.536;8.500;2022-09-12T14:40:42;25.20;47.00
38241;DHT22;24037;49.536;8.500;2022-09-12T14:43:27;25.10;46.50
38241;DHT22;24037;49.536;8.500;2022-09-12T14:46:06;25.20;47.60
38241;DHT22;24037;49.536;8.500;2022-09-12T14:48:43;25.30;46.70
38241;DHT22;24037;49.536;8.500;2022-09-12T14:51:27;25.20;47.20
38241;DHT22;24037;49.536;8.500;2022-09-12T14:53:55;25.20;47.30
38241;DHT22;24037;49.536;8.500;2022-09-12T14:56:39;25.20;47.40
38241;DHT22;24037;49.536;8.500;2022-09-12T15:02:30;25.10;47.00
38241;DHT22;24037;49.536;8.500;2022-09-12T15:10:26;25.20;46.50
38241;DHT22;24037;49.536;8.500;2022-09-12T15:15:35;25.00;45.90
38241;DHT22;24037;49.536;8.500;2022-09-12T15:18:02;25.00;46.80
38241;DHT22;24037;49.536;8.500;2022-09-12T15:20:28;25.00;47.00
38241;DHT22;24037;49.536;8.500;2022-09-12T15:22:55;25.00;47.10
38241;DHT22;24037;49.536;8.500;2022-09-12T15:25:21;25.00;47.20
38241;DHT22;24037;49.536;8.500;2022-09-12T15:27:50;24.90;47.10
38241;DHT22;24037;49.536;8.500;2022-09-12T15:30:17;24.90;47.80
38241;DHT22;24037;49.536;8.500;2022-09-12T15:32:44;25.10;47.40
38241;DHT22;24037;49.536;8.500;2022-09-12T15:35:20;25.10;47.70
38241;DHT22;24037;49.536;8.500;2022-09-12T15:37:50;25.00;46.70
38241;DHT22;24037;49.536;8.500;2022-09-12T15:40:16;25.00;47.20
38241;DHT22;24037;49.536;8.500;2022-09-12T15:42:43;25.10;47.00
38241;DHT22;24037;49.536;8.500;2022-09-12T15:45:21;25.20;48.00
38241;DHT22;24037;49.536;8.500;2022-09-12T15:47:48;25.30;46.80
38241;DHT22;24037;49.536;8.500;2022-09-12T15:50:14;25.20;46.40
38241;DHT22;24037;49.536;8.500;2022-09-12T15:52:41;25.10;47.20
38241;DHT22;24037;49.536;8.500;2022-09-12T15:55:19;25.00;46.40
38241;DHT22;24037;49.536;8.500;2022-09-12T15:57:46;24.80;46.80
38241;DHT22;24037;49.536;8.500;2022-09-12T16:00:14;24.90;46.90
38241;DHT22;24037;49.536;8.500;2022-09-12T16:02:41;24.90;47.80
38241;DHT22;24037;49.536;8.500;2022-09-12T16:05:14;24.90;46.70
38241;DHT22;24037;49.536;8.500;2022-09-12T16:07:42;24.90;46.80
38241;DHT22;24037;49.536;8.500;2022-09-12T16:10:17;24.90;47.40
38241;DHT22;24037;49.536;8.500;2022-09-12T16:12:44;24.90;47.20
38241;DHT22;24037;49.536;8.500;2022-09-12T16:15:12;25.00;48.20
38241;DHT22;24037;49.536;8.500;2022-09-12T16:17:39;24.90;46.90
38241;DHT22;24037;49.536;8.500;2022-09-12T16:20:06;24.80;47.00
38241;DHT22;24037;49.536;8.500;2022-09-12T16:22:32;24.90;47.30
38241;DHT22;24037;49.536;8.500;2022-09-12T16:24:58;24.90;47.40
38241;DHT22;24037;49.536;8.500;2022-09-12T16:27:24;24.90;47.00
38241;DHT22;24037;49.536;8.500;2022-09-12T16:29:51;24.80;46.80
38241;DHT22;24037;49.536;8.500;2022-09-12T16:32:17;24.70;47.00
38241;DHT22;24037;49.536;8.500;2022-09-12T16:34:43;24.80;47.30
38241;DHT22;24037;49.536;8.500;2022-09-12T16:37:09;24.60;46.80
38241;DHT22;24037;49.536;8.500;2022-09-12T16:39:36;24.60;47.40
38241;DHT22;24037;49.536;8.500;2022-09-12T16:42:02;24.60;47.80
38241;DHT22;24037;49.536;8.500;2022-09-12T16:44:28;24.60;48.10
38241;DHT22;24037;49.536;8.500;2022-09-12T16:46:54;24.60;47.70
38241;DHT22;24037;49.536;8.500;2022-09-12T16:49:20;24.50;48.30
38241;DHT22;24037;49.536;8.500;2022-09-12T16:51:46;24.40;48.50
38241;DHT22;24037;49.536;8.500;2022-09-12T16:54:14;24.30;48.60
38241;DHT22;24037;49.536;8.500;2022-09-12T16:56:41;24.20;48.80
38241;DHT22;24037;49.536;8.500;2022-09-12T16:59:07;24.10;48.50
38241;DHT22;24037;49.536;8.500;2022-09-12T17:01:37;24.10;48.10
38241;DHT22;24037;49.536;8.500;2022-09-12T17:04:03;24.00;48.40
38241;DHT22;24037;49.536;8.500;2022-09-12T17:06:31;24.00;48.90
38241;DHT22;24037;49.536;8.500;2022-09-12T17:08:59;23.90;49.10
38241;DHT22;24037;49.536;8.500;2022-09-12T17:11:33;23.90;49.90
38241;DHT22;24037;49.536;8.500;2022-09-12T17:14:02;23.80;49.60
38241;DHT22;24037;49.536;8.500;2022-09-12T17:16:32;23.70;50.40
38241;DHT22;24037;49.536;8.500;2022-09-12T17:18:59;23.50;51.20
38241;DHT22;24037;49.536;8.500;2022-09-12T17:21:25;23.40;51.30
38241;DHT22;24037;49.536;8.500;2022-09-12T17:23:51;23.20;52.00
38241;DHT22;24037;49.536;8.500;2022-09-12T17:26:17;23.00;52.90
38241;DHT22;24037;49.536;8.500;2022-09-12T17:28:44;22.90;53.80
38241;DHT22;24037;49.536;8.500;2022-09-12T17:31:11;22.80;57.10
38241;DHT22;24037;49.536;8.500;2022-09-12T17:33:38;22.70;62.50
38241;DHT22;24037;49.536;8.500;2022-09-12T17:36:07;22.40;64.40
38241;DHT22;24037;49.536;8.500;2022-09-12T17:38:35;22.10;66.40
38241;DHT22;24037;49.536;8.500;2022-09-12T17:41:28;21.70;68.90
38241;DHT22;24037;49.536;8.500;2022-09-12T17:43:57;21.50;71.70
38241;DHT22;24037;49.536;8.500;2022-09-12T17:46:32;21.20;73.20
38241;DHT22;24037;49.536;8.500;2022-09-12T17:49:00;20.90;75.20
38241;DHT22;24037;49.536;8.500;2022-09-12T17:51:28;20.80;77.10
38241;DHT22;24037;49.536;8.500;2022-09-12T17:53:58;20.60;76.30
38241;DHT22;24037;49.536;8.500;2022-09-12T17:56:25;20.40;78.10
38241;DHT22;24037;49.536;8.500;2022-09-12T17:58:54;20.20;81.10
38241;DHT22;24037;49.536;8.500;2022-09-12T18:01:20;20.00;83.50
38241;DHT22;24037;49.536;8.500;2022-09-12T18:04:05;19.80;87.30
38241;DHT22;24037;49.536;8.500;2022-09-12T18:06:32;19.60;89.50
38241;DHT22;24037;49.536;8.500;2022-09-12T18:08:59;19.50;91.30
38241;DHT22;24037;49.536;8.500;2022-09-12T18:11:27;19.40;93.60
38241;DHT22;24037;49.536;8.500;2022-09-12T18:13:53;19.40;94.00
38241;DHT22;24037;49.536;8.500;2022-09-12T18:16:19;19.20;94.30